Time;durP1;ratioP1;P1;durP2;ratioP2;P2;SDS_P1;SDS_P2;PMS_P1;PMS_P2;Temp;Humidity;BMP_temperature;BMP_pressure;BME280_temperature;BME280_humidity;BME280_pressure;Samples;Min_cycle;Max_cycle;Signal;HPM_P1;HPM_P2
2023/08/11 00:00:31;;;;;;;7.15;2.30;;;;;;;;;;5001582;28;20077;-48
2023/08/11 00:02:56;;;;;;;7.30;2.55;;;;;;;;;;5005781;28;20034;-49
2023/08/11 00:05:22;;;;;;;5.05;2.25;;;;;;;;;;5007611;28;20033;-46
2023/08/11 00:07:50;;;;;;;2.90;2.30;;;;;;;;;;4983262;28;20043;-45
2023/08/11 00:10:20;;;;;;;5.80;2.40;;;;;;;;;;4999609;28;20026;-45
2023/08/11 00:12:46;;;;;;;4.80;2.17;;;;;;;;;;4996062;28;20046;-46
2023/08/11 00:15:12;;;;;;;4.47;2.47;;;;;;;;;;4996917;28;20054;-47
2023/08/11 00:17:39;;;;;;;5.22;2.17;;;;;;;;;;5028674;28;20042;-48
2023/08/11 00:20:06;;;;;;;2.65;1.83;;;;;;;;;;5028747;28;20041;-50
2023/08/11 00:22:32;;;;;;;6.97;2.70;;;;;;;;;;5029389;28;20042;-49
2023/08/11 00:24:57;;;;;;;4.50;2.00;;;;;;;;;;4998908;28;20045;-47
2023/08/11 00:27:23;;;;;;;4.65;1.88;;;;;;;;;;4996504;28;20023;-48
2023/08/11 00:29:48;;;;;;;10.80;2.40;;;;;;;;;;4998497;28;20034;-47
2023/08/11 00:32:14;;;;;;;7.10;2.50;;;;;;;;;;5013432;28;20124;-48
2023/08/11 00:34:39;;;;;;;5.93;2.20;;;;;;;;;;5027993;28;20030;-47
2023/08/11 00:37:04;;;;;;;4.15;2.10;;;;;;;;;;5029975;28;20125;-48
2023/08/11 00:39:30;;;;;;;3.42;2.03;;;;;;;;;;5028781;28;20034;-47
2023/08/11 00:41:55;;;;;;;7.20;1.80;;;;;;;;;;4998750;28;20030;-48
2023/08/11 00:44:21;;;;;;;4.85;2.15;;;;;;;;;;4997153;28;20038;-50
2023/08/11 00:46:47;;;;;;;4.07;2.13;;;;;;;;;;4996626;28;20033;-52
2023/08/11 00:49:14;;;;;;;1.98;1.73;;;;;;;;;;4989093;28;20050;-47
2023/08/11 00:51:40;;;;;;;7.65;2.13;;;;;;;;;;5010409;28;20077;-49
2023/08/11 00:54:07;;;;;;;4.40;1.88;;;;;;;;;;5029743;28;20247;-48
2023/08/11 00:56:34;;;;;;;5.70;2.58;;;;;;;;;;4996825;28;20057;-52
2023/08/11 00:59:00;;;;;;;4.90;2.30;;;;;;;;;;5000512;28;20046;-48
2023/08/11 01:01:26;;;;;;;3.42;1.90;;;;;;;;;;4997249;28;20034;-48
2023/08/11 01:03:51;;;;;;;6.10;1.92;;;;;;;;;;4994387;28;20603;-46
2023/08/11 01:06:44;;;;;;;5.53;1.83;;;;;;;;;;4996199;28;20031;-49
2023/08/11 01:09:51;;;;;;;4.38;2.38;;;;;;;;;;4997950;28;20034;-52
2023/08/11 01:12:51;;;;;;;4.93;2.63;;;;;;;;;;4985158;28;20561;-48
2023/08/11 01:15:24;;;;;;;4.63;2.03;;;;;;;;;;4989079;28;20451;-52
2023/08/11 01:17:50;;;;;;;5.35;2.00;;;;;;;;;;5012513;28;20070;-47
2023/08/11 01:20:16;;;;;;;2.55;2.28;;;;;;;;;;4999053;28;20458;-49
2023/08/11 01:22:47;;;;;;;4.28;2.30;;;;;;;;;;4995678;28;20065;-48
2023/08/11 01:25:13;;;;;;;4.82;2.13;;;;;;;;;;4994896;28;20034;-47
2023/08/11 01:27:52;;;;;;;5.10;2.10;;;;;;;;;;4997320;28;20043;-49
2023/08/11 01:30:18;;;;;;;4.18;2.10;;;;;;;;;;5007070;28;20037;-49
2023/08/11 01:32:44;;;;;;;3.80;2.35;;;;;;;;;;5001123;28;21162;-48
2023/08/11 01:35:10;;;;;;;3.20;2.15;;;;;;;;;;4994762;28;20050;-50
2023/08/11 01:37:36;;;;;;;4.65;1.90;;;;;;;;;;4995790;28;20566;-49
2023/08/11 01:40:05;;;;;;;2.63;1.80;;;;;;;;;;4995018;28;20026;-45
2023/08/11 01:42:31;;;;;;;4.13;1.80;;;;;;;;;;4997214;28;20039;-46
2023/08/11 01:44:56;;;;;;;4.68;1.85;;;;;;;;;;5024485;28;20037;-45
2023/08/11 01:47:23;;;;;;;1.65;1.55;;;;;;;;;;5024262;28;20552;-50
2023/08/11 01:49:48;;;;;;;5.00;2.30;;;;;;;;;;5020176;28;20041;-46
2023/08/11 01:52:14;;;;;;;4.30;1.75;;;;;;;;;;4995970;28;20026;-48
2023/08/11 01:54:43;;;;;;;4.07;1.98;;;;;;;;;;5016241;28;20098;-45
2023/08/11 01:57:09;;;;;;;5.85;2.40;;;;;;;;;;4995790;28;20037;-45
2023/08/11 01:59:35;;;;;;;3.03;1.90;;;;;;;;;;4993049;28;20465;-47
2023/08/11 02:02:00;;;;;;;3.53;2.15;;;;;;;;;;5001708;28;20022;-49
2023/08/11 02:04:26;;;;;;;4.35;2.00;;;;;;;;;;4994939;28;20093;-47
2023/08/11 02:06:51;;;;;;;3.30;2.30;;;;;;;;;;5014382;28;20025;-45
2023/08/11 02:09:17;;;;;;;4.75;2.20;;;;;;;;;;5000878;28;20068;-45
2023/08/11 02:11:43;;;;;;;5.38;1.98;;;;;;;;;;4995997;28;20034;-46
2023/08/11 02:14:08;;;;;;;3.15;2.15;;;;;;;;;;4994368;28;20121;-48
2023/08/11 02:16:35;;;;;;;3.53;2.17;;;;;;;;;;4995503;28;20046;-45
2023/08/11 02:19:00;;;;;;;3.40;1.60;;;;;;;;;;4984931;28;20065;-47
2023/08/11 02:21:27;;;;;;;4.35;1.95;;;;;;;;;;4990483;28;20030;-46
2023/08/11 02:23:53;;;;;;;6.95;2.60;;;;;;;;;;4994265;28;20067;-52
2023/08/11 02:26:19;;;;;;;3.00;2.08;;;;;;;;;;4995834;28;20649;-48
2023/08/11 02:28:45;;;;;;;3.88;1.83;;;;;;;;;;4959507;28;20175;-48
2023/08/11 02:31:10;;;;;;;5.18;1.70;;;;;;;;;;4994704;28;20032;-47
2023/08/11 02:33:36;;;;;;;2.05;1.85;;;;;;;;;;4992688;28;20039;-49
2023/08/11 02:36:02;;;;;;;6.68;2.20;;;;;;;;;;4996529;28;20046;-50
2023/08/11 02:38:27;;;;;;;4.78;2.20;;;;;;;;;;4985879;28;20054;-47
2023/08/11 02:40:53;;;;;;;3.58;2.53;;;;;;;;;;4992213;28;20034;-49
2023/08/11 02:43:18;;;;;;;3.10;1.90;;;;;;;;;;4994202;28;20038;-49
2023/08/11 02:45:44;;;;;;;2.65;1.98;;;;;;;;;;5028228;28;20026;-49
2023/08/11 02:48:09;;;;;;;2.75;1.98;;;;;;;;;;4994982;28;20500;-48
2023/08/11 02:50:34;;;;;;;2.28;1.90;;;;;;;;;;4978469;28;20038;-49
2023/08/11 02:53:00;;;;;;;4.25;2.08;;;;;;;;;;4996127;28;20042;-46
2023/08/11 02:55:25;;;;;;;6.53;2.30;;;;;;;;;;4995035;28;20041;-51
2023/08/11 02:57:51;;;;;;;4.10;2.20;;;;;;;;;;4996225;28;20050;-48
2023/08/11 03:00:17;;;;;;;4.88;2.10;;;;;;;;;;5004831;28;20485;-49
2023/08/11 03:02:47;;;;;;;9.15;2.22;;;;;;;;;;4998443;28;20038;-48
2023/08/11 03:05:14;;;;;;;3.35;2.42;;;;;;;;;;4998947;28;20038;-47
2023/08/11 03:07:41;;;;;;;4.85;2.22;;;;;;;;;;5003630;28;20037;-47
2023/08/11 03:10:07;;;;;;;5.80;2.10;;;;;;;;;;4999657;28;20034;-47
2023/08/11 03:12:33;;;;;;;5.72;2.30;;;;;;;;;;4997029;28;20065;-47
2023/08/11 03:14:58;;;;;;;6.60;2.20;;;;;;;;;;4990185;28;20035;-49
2023/08/11 03:17:24;;;;;;;2.97;2.20;;;;;;;;;;5030140;28;20096;-48
2023/08/11 03:19:49;;;;;;;5.75;2.00;;;;;;;;;;5012480;28;20026;-47
2023/08/11 03:22:18;;;;;;;3.50;1.73;;;;;;;;;;5012114;28;20566;-46
2023/08/11 03:24:44;;;;;;;5.10;2.35;;;;;;;;;;4996735;28;20397;-46
2023/08/11 03:27:12;;;;;;;4.93;2.60;;;;;;;;;;4988329;28;20027;-48
2023/08/11 03:29:37;;;;;;;6.10;2.33;;;;;;;;;;4962910;28;20065;-47
2023/08/11 03:32:03;;;;;;;4.82;2.13;;;;;;;;;;4995948;28;20362;-50
2023/08/11 03:34:28;;;;;;;4.60;2.00;;;;;;;;;;5024955;28;20048;-48
2023/08/11 03:36:54;;;;;;;2.72;2.10;;;;;;;;;;4980911;28;20400;-46
2023/08/11 03:39:19;;;;;;;4.45;2.08;;;;;;;;;;4980600;28;20038;-47
2023/08/11 03:41:44;;;;;;;3.35;2.13;;;;;;;;;;5031418;28;20030;-48
2023/08/11 03:44:10;;;;;;;5.82;2.97;;;;;;;;;;4998195;28;20042;-48
2023/08/11 03:46:35;;;;;;;5.68;2.75;;;;;;;;;;4998095;28;20031;-48
2023/08/11 03:49:01;;;;;;;8.43;2.60;;;;;;;;;;4993615;28;20054;-50
2023/08/11 03:51:26;;;;;;;6.68;2.38;;;;;;;;;;4999304;28;20033;-48
2023/08/11 03:53:51;;;;;;;4.22;2.67;;;;;;;;;;4993806;28;20089;-48
2023/08/11 03:56:18;;;;;;;5.03;2.45;;;;;;;;;;4981351;28;20544;-50
2023/08/11 03:58:43;;;;;;;7.20;2.45;;;;;;;;;;4998835;28;20046;-49
2023/08/11 04:01:09;;;;;;;7.97;2.53;;;;;;;;;;4980367;28;20911;-47
2023/08/11 04:03:34;;;;;;;6.45;2.20;;;;;;;;;;4996539;28;20088;-49
2023/08/11 04:06:00;;;;;;;2.97;2.50;;;;;;;;;;4997869;28;20022;-47
2023/08/11 04:08:27;;;;;;;3.80;2.38;;;;;;;;;;4998798;28;20039;-48
2023/08/11 04:10:53;;;;;;;5.68;2.90;;;;;;;;;;4999700;28;20053;-48
2023/08/11 04:13:19;;;;;;;7.32;2.40;;;;;;;;;;5024079;28;20070;-54
2023/08/11 04:15:45;;;;;;;3.30;2.25;;;;;;;;;;5026262;28;20031;-48
2023/08/11 04:18:12;;;;;;;6.15;2.60;;;;;;;;;;4997631;28;20544;-48
2023/08/11 04:20:37;;;;;;;6.00;2.70;;;;;;;;;;4992509;28;20030;-47
2023/08/11 04:23:03;;;;;;;2.45;2.20;;;;;;;;;;4996147;28;20034;-47
2023/08/11 04:25:29;;;;;;;4.32;2.50;;;;;;;;;;4993374;28;20019;-49
2023/08/11 04:27:55;;;;;;;9.38;2.42;;;;;;;;;;5003733;28;20042;-50
2023/08/11 04:30:21;;;;;;;4.57;2.50;;;;;;;;;;5032782;28;20018;-50
2023/08/11 04:32:47;;;;;;;3.55;2.47;;;;;;;;;;4998133;28;20065;-49
2023/08/11 04:35:12;;;;;;;3.20;2.20;;;;;;;;;;4967383;28;20120;-49
2023/08/11 04:37:39;;;;;;;8.95;2.33;;;;;;;;;;5039811;28;20030;-46
2023/08/11 04:40:13;;;;;;;4.18;2.50;;;;;;;;;;4996707;28;20030;-48
2023/08/11 04:42:39;;;;;;;5.18;2.78;;;;;;;;;;5008739;28;20428;-47
2023/08/11 04:45:05;;;;;;;3.55;2.65;;;;;;;;;;4994991;28;20037;-48
2023/08/11 04:47:30;;;;;;;10.93;2.92;;;;;;;;;;5023534;28;20129;-46
2023/08/11 04:49:57;;;;;;;3.30;2.40;;;;;;;;;;5009700;28;20120;-47
2023/08/11 04:52:22;;;;;;;7.70;3.00;;;;;;;;;;4996615;28;20037;-46
2023/08/11 04:54:48;;;;;;;7.00;3.03;;;;;;;;;;4987519;28;20034;-50
2023/08/11 04:57:13;;;;;;;9.05;2.92;;;;;;;;;;4988595;28;20022;-46
2023/08/11 04:59:38;;;;;;;4.60;3.22;;;;;;;;;;4995392;28;20092;-48
2023/08/11 05:02:04;;;;;;;6.97;3.03;;;;;;;;;;5026753;28;20077;-42
2023/08/11 05:04:30;;;;;;;9.32;2.75;;;;;;;;;;5023034;28;20033;-49
2023/08/11 05:06:56;;;;;;;5.88;2.80;;;;;;;;;;4996724;28;20037;-48
2023/08/11 05:09:21;;;;;;;5.22;3.13;;;;;;;;;;4990856;28;20516;-48
2023/08/11 05:11:46;;;;;;;5.75;2.78;;;;;;;;;;4980516;28;20023;-45
2023/08/11 05:14:15;;;;;;;13.23;2.97;;;;;;;;;;4998524;28;20037;-47
2023/08/11 05:16:41;;;;;;;7.68;3.05;;;;;;;;;;5033010;28;20490;-48
2023/08/11 05:19:06;;;;;;;5.95;3.00;;;;;;;;;;4982112;28;20034;-47
2023/08/11 05:21:31;;;;;;;5.57;2.72;;;;;;;;;;4997162;28;20050;-50
2023/08/11 05:23:57;;;;;;;4.32;2.92;;;;;;;;;;4995249;28;20519;-46
2023/08/11 05:26:22;;;;;;;3.40;2.58;;;;;;;;;;4997289;28;20031;-48
2023/08/11 05:28:48;;;;;;;5.72;2.90;;;;;;;;;;4994915;28;20045;-47
2023/08/11 05:31:13;;;;;;;6.78;3.17;;;;;;;;;;4996309;28;20503;-47
2023/08/11 05:33:39;;;;;;;16.80;3.20;;;;;;;;;;4987115;28;20034;-47
2023/08/11 05:36:04;;;;;;;5.30;3.30;;;;;;;;;;5004756;28;20050;-46
2023/08/11 05:38:29;;;;;;;14.38;3.55;;;;;;;;;;4999562;28;20699;-47
2023/08/11 05:40:55;;;;;;;9.32;3.10;;;;;;;;;;4996149;28;20080;-46
2023/08/11 05:43:20;;;;;;;6.65;2.90;;;;;;;;;;5003591;28;20039;-47
2023/08/11 05:45:46;;;;;;;6.10;3.42;;;;;;;;;;4998764;28;20109;-49
2023/08/11 05:48:11;;;;;;;6.70;3.05;;;;;;;;;;5033323;28;20045;-46
2023/08/11 05:50:38;;;;;;;4.25;2.92;;;;;;;;;;4995051;28;20033;-48
2023/08/11 05:53:03;;;;;;;6.32;3.10;;;;;;;;;;4979198;28;20041;-46
2023/08/11 05:55:29;;;;;;;8.52;2.80;;;;;;;;;;4976343;28;20031;-50
2023/08/11 05:57:54;;;;;;;4.32;2.75;;;;;;;;;;4978814;28;20047;-51
2023/08/11 06:00:20;;;;;;;5.40;2.88;;;;;;;;;;4997316;28;20041;-49
2023/08/11 06:02:45;;;;;;;8.23;3.08;;;;;;;;;;5027895;28;20419;-46
2023/08/11 06:05:15;;;;;;;2.95;2.65;;;;;;;;;;4995738;28;20041;-49
2023/08/11 06:07:40;;;;;;;8.98;3.00;;;;;;;;;;5011239;28;20113;-48
2023/08/11 06:10:06;;;;;;;4.80;2.78;;;;;;;;;;4995946;28;20499;-48
2023/08/11 06:12:32;;;;;;;7.50;3.10;;;;;;;;;;5008125;28;20036;-47
2023/08/11 06:14:58;;;;;;;6.13;2.85;;;;;;;;;;4995184;28;20030;-46
2023/08/11 06:17:24;;;;;;;15.95;2.97;;;;;;;;;;5031285;28;20045;-49
2023/08/11 06:19:49;;;;;;;6.80;2.80;;;;;;;;;;5024039;28;20037;-50
2023/08/11 06:22:15;;;;;;;4.80;2.97;;;;;;;;;;5025589;28;20030;-46
2023/08/11 06:24:40;;;;;;;4.85;2.60;;;;;;;;;;4994349;28;20041;-47
2023/08/11 06:27:06;;;;;;;5.78;3.25;;;;;;;;;;4995296;28;20031;-47
2023/08/11 06:29:31;;;;;;;8.73;2.72;;;;;;;;;;4996982;28;20176;-46
2023/08/11 06:31:57;;;;;;;5.25;3.00;;;;;;;;;;4994420;28;20030;-51
2023/08/11 06:34:22;;;;;;;4.72;2.85;;;;;;;;;;4995486;28;20034;-46
2023/08/11 06:36:48;;;;;;;8.55;2.95;;;;;;;;;;4996166;28;20042;-46
2023/08/11 06:39:14;;;;;;;8.85;3.42;;;;;;;;;;4993265;28;20034;-49
2023/08/11 06:41:40;;;;;;;8.57;2.58;;;;;;;;;;4994157;28;20030;-47
2023/08/11 06:44:05;;;;;;;6.63;2.70;;;;;;;;;;5008105;28;20056;-47
2023/08/11 06:46:31;;;;;;;5.43;3.10;;;;;;;;;;4981510;28;20453;-46
2023/08/11 06:48:57;;;;;;;9.73;3.50;;;;;;;;;;4988331;28;20038;-48
2023/08/11 06:51:22;;;;;;;6.90;2.88;;;;;;;;;;4994938;28;20392;-48
2023/08/11 06:53:48;;;;;;;4.18;3.13;;;;;;;;;;4994910;28;20042;-47
2023/08/11 06:56:13;;;;;;;3.45;2.40;;;;;;;;;;4996613;28;20081;-46
2023/08/11 06:58:38;;;;;;;8.50;2.95;;;;;;;;;;5006142;28;20038;-46
2023/08/11 07:01:04;;;;;;;3.85;2.58;;;;;;;;;;4996656;28;20038;-48
2023/08/11 07:03:29;;;;;;;5.43;2.92;;;;;;;;;;5005137;28;20049;-50
2023/08/11 07:05:55;;;;;;;4.25;2.53;;;;;;;;;;4996006;28;20049;-45
2023/08/11 07:08:20;;;;;;;5.32;2.50;;;;;;;;;;5008334;28;20071;-46
2023/08/11 07:10:46;;;;;;;3.78;2.75;;;;;;;;;;4994687;28;20377;-47
2023/08/11 07:13:11;;;;;;;5.15;2.58;;;;;;;;;;4994127;28;20126;-47
2023/08/11 07:15:40;;;;;;;5.88;3.10;;;;;;;;;;4994857;28;20037;-46
2023/08/11 07:18:06;;;;;;;9.73;2.90;;;;;;;;;;4993892;28;20447;-46
2023/08/11 07:20:32;;;;;;;5.80;2.67;;;;;;;;;;4994508;28;20034;-48
2023/08/11 07:22:57;;;;;;;5.75;2.92;;;;;;;;;;4995403;28;20042;-50
2023/08/11 07:25:23;;;;;;;6.85;3.03;;;;;;;;;;4994439;28;20389;-48
2023/08/11 07:27:48;;;;;;;7.43;3.10;;;;;;;;;;4994090;28;20133;-47
2023/08/11 07:30:14;;;;;;;7.63;2.85;;;;;;;;;;5027667;28;20026;-47
2023/08/11 07:32:39;;;;;;;9.18;2.83;;;;;;;;;;5009303;28;20038;-46
2023/08/11 07:35:05;;;;;;;7.97;3.20;;;;;;;;;;5023963;28;20054;-48
2023/08/11 07:37:31;;;;;;;5.80;3.25;;;;;;;;;;5009284;28;20038;-48
2023/08/11 07:39:56;;;;;;;7.75;2.85;;;;;;;;;;4995285;28;20133;-49
2023/08/11 07:42:22;;;;;;;10.25;3.28;;;;;;;;;;4993374;28;20903;-47
2023/08/11 07:44:47;;;;;;;10.18;3.42;;;;;;;;;;4996716;28;20077;-47
2023/08/11 07:47:13;;;;;;;10.00;3.80;;;;;;;;;;4994649;28;20031;-47
2023/08/11 07:49:39;;;;;;;11.27;3.70;;;;;;;;;;4997663;28;20485;-50
2023/08/11 07:52:04;;;;;;;11.88;3.67;;;;;;;;;;4992997;28;20091;-45
2023/08/11 07:54:30;;;;;;;7.57;3.88;;;;;;;;;;4998151;28;20444;-45
2023/08/11 07:56:55;;;;;;;15.05;4.22;;;;;;;;;;4994996;28;20030;-48
2023/08/11 07:59:21;;;;;;;8.30;4.03;;;;;;;;;;4996493;28;20038;-49
2023/08/11 08:01:46;;;;;;;7.20;3.90;;;;;;;;;;5014523;28;20037;-47
2023/08/11 08:04:12;;;;;;;9.38;3.40;;;;;;;;;;5019694;28;20045;-48
2023/08/11 08:06:45;;;;;;;8.02;3.45;;;;;;;;;;5014837;28;20019;-45
2023/08/11 08:09:14;;;;;;;8.70;3.50;;;;;;;;;;4989281;28;20038;-47
2023/08/11 08:11:42;;;;;;;14.32;3.70;;;;;;;;;;4995881;28;20022;-50
2023/08/11 08:14:08;;;;;;;12.30;3.42;;;;;;;;;;5000633;28;20077;-47
2023/08/11 08:16:34;;;;;;;18.25;4.05;;;;;;;;;;5006770;28;20031;-48
2023/08/11 08:18:59;;;;;;;11.75;3.90;;;;;;;;;;4996603;28;20393;-51
2023/08/11 08:21:24;;;;;;;15.95;4.10;;;;;;;;;;4998551;28;20109;-44
2023/08/11 08:23:50;;;;;;;11.50;3.30;;;;;;;;;;4994946;28;20038;-48
2023/08/11 08:26:16;;;;;;;5.70;3.28;;;;;;;;;;5016033;28;20029;-46
2023/08/11 08:28:42;;;;;;;19.00;4.00;;;;;;;;;;5015917;28;20042;-47
2023/08/11 08:31:07;;;;;;;18.25;4.03;;;;;;;;;;4998154;28;20487;-47
2023/08/11 08:33:32;;;;;;;10.05;3.97;;;;;;;;;;4998443;28;20077;-45
2023/08/11 08:35:58;;;;;;;7.72;3.25;;;;;;;;;;5006306;28;20050;-46
2023/08/11 08:38:23;;;;;;;6.47;3.28;;;;;;;;;;5000132;28;20394;-46
2023/08/11 08:40:49;;;;;;;5.65;3.63;;;;;;;;;;4996736;28;20041;-45
2023/08/11 08:43:16;;;;;;;10.13;3.30;;;;;;;;;;5021948;28;20042;-44
2023/08/11 08:45:43;;;;;;;5.47;3.38;;;;;;;;;;4991548;28;20101;-48
2023/08/11 08:48:19;;;;;;;9.68;3.35;;;;;;;;;;5008005;28;20102;-45
2023/08/11 08:50:45;;;;;;;5.65;3.25;;;;;;;;;;4996836;28;20030;-47
2023/08/11 08:53:10;;;;;;;12.80;3.50;;;;;;;;;;5029366;28;20085;-47
2023/08/11 08:55:36;;;;;;;5.85;3.03;;;;;;;;;;5013361;28;20373;-45
2023/08/11 08:58:01;;;;;;;10.73;3.03;;;;;;;;;;5001524;28;20046;-45
2023/08/11 09:00:28;;;;;;;8.25;3.25;;;;;;;;;;4992335;28;20060;-49
2023/08/11 09:02:55;;;;;;;5.85;2.85;;;;;;;;;;4989604;28;20099;-45
2023/08/11 09:05:22;;;;;;;6.65;3.08;;;;;;;;;;4991526;28;20035;-45
2023/08/11 09:07:47;;;;;;;5.03;3.15;;;;;;;;;;5030408;28;20074;-48
2023/08/11 09:10:13;;;;;;;4.85;2.67;;;;;;;;;;4990559;28;20042;-47
2023/08/11 09:12:39;;;;;;;4.88;2.50;;;;;;;;;;4990777;28;20121;-48
2023/08/11 09:15:09;;;;;;;8.90;3.20;;;;;;;;;;4997735;28;20061;-47
2023/08/11 09:17:43;;;;;;;5.57;2.83;;;;;;;;;;4994885;28;20046;-48
2023/08/11 09:20:12;;;;;;;6.10;2.45;;;;;;;;;;4996144;28;20113;-50
2023/08/11 09:22:38;;;;;;;8.93;2.72;;;;;;;;;;5011482;28;20190;-47
2023/08/11 09:25:04;;;;;;;8.05;2.70;;;;;;;;;;4997158;28;20026;-45
2023/08/11 09:27:30;;;;;;;12.73;2.95;;;;;;;;;;4993147;28;20038;-48
2023/08/11 09:29:57;;;;;;;4.13;3.20;;;;;;;;;;5024363;28;20114;-48
2023/08/11 09:32:23;;;;;;;4.85;2.88;;;;;;;;;;4998034;28;20428;-45
2023/08/11 09:34:48;;;;;;;8.57;2.60;;;;;;;;;;4994315;28;20178;-46
2023/08/11 09:37:14;;;;;;;5.03;2.83;;;;;;;;;;4996897;28;20444;-49
2023/08/11 09:39:41;;;;;;;3.85;2.53;;;;;;;;;;4991773;28;20037;-47
2023/08/11 09:42:08;;;;;;;9.32;3.03;;;;;;;;;;5019888;28;20042;-45
2023/08/11 09:44:34;;;;;;;3.22;2.50;;;;;;;;;;4996873;28;20026;-45
2023/08/11 09:47:01;;;;;;;3.72;2.10;;;;;;;;;;4993958;28;20077;-48
2023/08/11 09:49:26;;;;;;;5.95;2.50;;;;;;;;;;4996620;28;20038;-49
2023/08/11 09:51:57;;;;;;;4.97;2.47;;;;;;;;;;4994440;28;20461;-46
2023/08/11 09:54:23;;;;;;;7.55;2.55;;;;;;;;;;5040069;28;20062;-51
2023/08/11 09:56:49;;;;;;;4.57;2.67;;;;;;;;;;5028882;28;20026;-47
2023/08/11 09:59:18;;;;;;;8.82;2.42;;;;;;;;;;4993303;28;20042;-49
2023/08/11 10:01:44;;;;;;;4.55;2.72;;;;;;;;;;5002305;28;20030;-46
2023/08/11 10:04:34;;;;;;;8.20;2.72;;;;;;;;;;4998626;28;20038;-50
2023/08/11 10:07:03;;;;;;;5.45;2.50;;;;;;;;;;4980771;28;20481;-46
2023/08/11 10:09:30;;;;;;;9.15;2.58;;;;;;;;;;4994883;28;20428;-51
2023/08/11 10:11:58;;;;;;;5.82;2.53;;;;;;;;;;4993101;28;20037;-48
2023/08/11 10:14:27;;;;;;;3.85;2.40;;;;;;;;;;5022008;28;20220;-48
2023/08/11 10:16:53;;;;;;;3.75;2.45;;;;;;;;;;5028302;28;20033;-47
2023/08/11 10:19:20;;;;;;;3.47;2.38;;;;;;;;;;5004219;28;20038;-48
2023/08/11 10:21:46;;;;;;;4.35;2.40;;;;;;;;;;4996375;28;20038;-47
2023/08/11 10:24:12;;;;;;;10.15;2.38;;;;;;;;;;4995900;28;20030;-49
2023/08/11 10:26:38;;;;;;;7.80;2.55;;;;;;;;;;5006250;28;20483;-50
2023/08/11 10:29:04;;;;;;;6.60;2.60;;;;;;;;;;4976077;28;20380;-47
2023/08/11 10:31:33;;;;;;;4.70;2.22;;;;;;;;;;4986006;28;20466;-51
2023/08/11 10:34:05;;;;;;;8.10;2.28;;;;;;;;;;4998748;28;20041;-48
2023/08/11 10:36:32;;;;;;;4.05;2.58;;;;;;;;;;4993312;28;20038;-48
2023/08/11 10:39:00;;;;;;;7.28;2.75;;;;;;;;;;4994074;28;20105;-49
2023/08/11 10:41:28;;;;;;;4.45;2.40;;;;;;;;;;4987828;28;20487;-47
2023/08/11 10:43:54;;;;;;;9.20;2.60;;;;;;;;;;4993564;28;20039;-45
2023/08/11 10:46:29;;;;;;;16.55;2.85;;;;;;;;;;4994015;28;20548;-46
2023/08/11 10:48:59;;;;;;;6.68;2.85;;;;;;;;;;4995959;28;20038;-47
2023/08/11 10:51:33;;;;;;;9.95;2.55;;;;;;;;;;4989288;28;20102;-48
2023/08/11 10:54:09;;;;;;;6.15;2.80;;;;;;;;;;4989424;28;20030;-49
2023/08/11 10:56:37;;;;;;;6.57;2.85;;;;;;;;;;5005619;28;20054;-47
2023/08/11 10:59:18;;;;;;;3.88;2.50;;;;;;;;;;5006922;28;20536;-49
2023/08/11 11:01:49;;;;;;;7.75;2.50;;;;;;;;;;4991139;28;20042;-47
2023/08/11 11:04:15;;;;;;;9.93;3.13;;;;;;;;;;4996677;28;20027;-46
2023/08/11 11:06:43;;;;;;;4.90;2.72;;;;;;;;;;4994915;28;20521;-46
2023/08/11 11:09:09;;;;;;;5.78;2.67;;;;;;;;;;4991900;28;20029;-49
2023/08/11 11:11:38;;;;;;;9.60;2.65;;;;;;;;;;4996138;28;20042;-45
2023/08/11 11:14:05;;;;;;;10.07;3.00;;;;;;;;;;5033646;28;20033;-45
2023/08/11 11:16:32;;;;;;;5.78;2.72;;;;;;;;;;4993700;28;20055;-49
2023/08/11 11:19:00;;;;;;;8.20;2.45;;;;;;;;;;5014424;28;20034;-45
2023/08/11 11:21:25;;;;;;;24.20;3.05;;;;;;;;;;4999076;28;20046;-47
2023/08/11 11:23:51;;;;;;;8.38;2.92;;;;;;;;;;5006000;28;20034;-47
2023/08/11 11:26:26;;;;;;;3.33;2.28;;;;;;;;;;4997316;28;20097;-45
2023/08/11 11:28:54;;;;;;;5.47;2.50;;;;;;;;;;4998378;28;20088;-50
2023/08/11 11:31:21;;;;;;;5.93;2.75;;;;;;;;;;4999409;28;20038;-46
2023/08/11 11:33:48;;;;;;;7.78;2.33;;;;;;;;;;5030127;28;20054;-48
2023/08/11 11:36:15;;;;;;;4.30;2.58;;;;;;;;;;5002729;28;20046;-48
2023/08/11 11:38:41;;;;;;;3.97;2.00;;;;;;;;;;5011709;28;20038;-46
2023/08/11 11:41:11;;;;;;;7.40;2.30;;;;;;;;;;5030044;28;20026;-50
2023/08/11 11:43:37;;;;;;;6.32;2.53;;;;;;;;;;4998485;28;20022;-47
2023/08/11 11:46:03;;;;;;;2.78;2.00;;;;;;;;;;5029927;28;20757;-46
2023/08/11 11:48:29;;;;;;;3.97;2.30;;;;;;;;;;4997884;28;20034;-49
2023/08/11 11:50:54;;;;;;;5.70;2.38;;;;;;;;;;4991435;28;20050;-50
2023/08/11 11:53:23;;;;;;;6.25;2.10;;;;;;;;;;4998579;28;20042;-48
2023/08/11 11:55:51;;;;;;;7.93;2.80;;;;;;;;;;5012242;28;20031;-46
2023/08/11 11:58:17;;;;;;;5.00;2.67;;;;;;;;;;4997409;28;20076;-50
2023/08/11 12:00:46;;;;;;;3.63;2.40;;;;;;;;;;4987466;28;20039;-47
2023/08/11 12:03:11;;;;;;;5.18;2.65;;;;;;;;;;4994861;28;20099;-48
2023/08/11 12:05:37;;;;;;;6.15;2.60;;;;;;;;;;4987641;28;20050;-48
2023/08/11 12:08:24;;;;;;;3.08;2.00;;;;;;;;;;4997376;28;20026;-48
2023/08/11 12:10:50;;;;;;;6.47;2.20;;;;;;;;;;4983992;28;20068;-49
2023/08/11 12:13:17;;;;;;;8.52;2.85;;;;;;;;;;4997944;28;20077;-48
2023/08/11 12:15:46;;;;;;;7.00;3.03;;;;;;;;;;4987113;28;20039;-49
2023/08/11 12:18:12;;;;;;;4.53;2.50;;;;;;;;;;4998843;28;20030;-45
2023/08/11 12:20:38;;;;;;;4.10;2.67;;;;;;;;;;4978910;28;20057;-47
2023/08/11 12:23:03;;;;;;;10.82;2.22;;;;;;;;;;4979923;28;20069;-49
2023/08/11 12:25:29;;;;;;;8.23;2.33;;;;;;;;;;4995181;28;20049;-49
2023/08/11 12:27:55;;;;;;;5.13;2.20;;;;;;;;;;5030298;28;20026;-47
2023/08/11 12:30:21;;;;;;;6.40;2.75;;;;;;;;;;4996554;28;20511;-45
2023/08/11 12:32:46;;;;;;;8.32;2.38;;;;;;;;;;4995698;28;20030;-47
2023/08/11 12:35:12;;;;;;;6.05;2.70;;;;;;;;;;4995889;28;20053;-45
2023/08/11 12:37:38;;;;;;;9.13;2.70;;;;;;;;;;4995207;28;20037;-47
2023/08/11 12:40:03;;;;;;;4.15;2.70;;;;;;;;;;4997764;28;20034;-46
2023/08/11 12:42:29;;;;;;;6.72;2.50;;;;;;;;;;4995714;28;20062;-50
2023/08/11 12:44:55;;;;;;;4.28;2.20;;;;;;;;;;4996678;28;20077;-46
2023/08/11 12:47:21;;;;;;;7.55;2.53;;;;;;;;;;4984278;28;20424;-48
2023/08/11 12:49:47;;;;;;;8.85;2.80;;;;;;;;;;4995255;28;20026;-48
2023/08/11 12:52:12;;;;;;;5.22;2.60;;;;;;;;;;5020743;28;20033;-50
2023/08/11 12:54:37;;;;;;;7.85;2.50;;;;;;;;;;4994875;28;20084;-47
2023/08/11 12:57:03;;;;;;;12.02;2.80;;;;;;;;;;4996409;28;20042;-45
2023/08/11 12:59:29;;;;;;;7.32;2.55;;;;;;;;;;4996907;28;20550;-45
2023/08/11 13:01:54;;;;;;;8.57;2.70;;;;;;;;;;4995634;28;20113;-46
2023/08/11 13:04:19;;;;;;;8.75;2.30;;;;;;;;;;4987071;28;20027;-46
2023/08/11 13:06:45;;;;;;;9.27;2.50;;;;;;;;;;4990055;28;20058;-50
2023/08/11 13:09:14;;;;;;;7.97;2.80;;;;;;;;;;4990633;28;20038;-46
2023/08/11 13:11:40;;;;;;;3.97;2.88;;;;;;;;;;4997071;28;20049;-48
2023/08/11 13:14:05;;;;;;;11.32;3.05;;;;;;;;;;5005145;28;20764;-47
2023/08/11 13:16:31;;;;;;;5.43;2.65;;;;;;;;;;4996068;28;20038;-47
2023/08/11 13:18:56;;;;;;;5.90;2.58;;;;;;;;;;4994928;28;20033;-50
2023/08/11 13:21:22;;;;;;;10.07;2.53;;;;;;;;;;4995305;28;20425;-47
2023/08/11 13:23:47;;;;;;;8.02;2.72;;;;;;;;;;4995301;28;20026;-46
2023/08/11 13:26:13;;;;;;;5.13;2.40;;;;;;;;;;4991131;28;20034;-45
2023/08/11 13:28:40;;;;;;;16.23;2.90;;;;;;;;;;4990014;28;20487;-47
2023/08/11 13:31:05;;;;;;;9.80;2.90;;;;;;;;;;4997561;28;20049;-47
2023/08/11 13:33:30;;;;;;;7.95;2.60;;;;;;;;;;4995513;28;20366;-45
2023/08/11 13:35:56;;;;;;;4.95;2.60;;;;;;;;;;4995191;28;20053;-45
2023/08/11 13:38:22;;;;;;;11.60;2.95;;;;;;;;;;4997309;28;20030;-46
2023/08/11 13:40:48;;;;;;;2.63;1.90;;;;;;;;;;4994815;28;20034;-51
2023/08/11 13:43:14;;;;;;;5.18;2.70;;;;;;;;;;5026014;28;20033;-48
2023/08/11 13:45:39;;;;;;;5.85;2.60;;;;;;;;;;4995013;28;20497;-47
2023/08/11 13:48:05;;;;;;;5.18;2.47;;;;;;;;;;5027370;28;20116;-45
2023/08/11 13:50:30;;;;;;;3.95;2.25;;;;;;;;;;4976192;28;20084;-49
2023/08/11 13:52:56;;;;;;;9.18;2.60;;;;;;;;;;4997148;28;20026;-45
2023/08/11 13:55:21;;;;;;;5.78;2.35;;;;;;;;;;4997099;28;20396;-48
2023/08/11 13:57:48;;;;;;;6.40;2.85;;;;;;;;;;4996309;28;20022;-46
2023/08/11 14:00:14;;;;;;;2.60;2.20;;;;;;;;;;5000107;28;20072;-48
2023/08/11 14:02:40;;;;;;;4.22;2.67;;;;;;;;;;5005348;28;20018;-45
2023/08/11 14:05:06;;;;;;;4.40;2.72;;;;;;;;;;4994429;28;20089;-45
2023/08/11 14:07:32;;;;;;;4.47;2.65;;;;;;;;;;4995256;28;20026;-46
2023/08/11 14:09:57;;;;;;;3.70;2.35;;;;;;;;;;4996339;28;20038;-44
2023/08/11 14:12:23;;;;;;;4.22;2.00;;;;;;;;;;4995705;28;20034;-49
2023/08/11 14:14:48;;;;;;;3.50;2.45;;;;;;;;;;4994834;28;20034;-46
2023/08/11 14:17:14;;;;;;;6.07;2.55;;;;;;;;;;5007287;28;20054;-47
2023/08/11 14:19:39;;;;;;;4.18;2.63;;;;;;;;;;4978767;28;20023;-49
2023/08/11 14:22:04;;;;;;;6.53;3.10;;;;;;;;;;4992106;28;20066;-47
2023/08/11 14:24:30;;;;;;;7.82;2.22;;;;;;;;;;4996407;28;20023;-47
2023/08/11 14:26:55;;;;;;;3.88;2.38;;;;;;;;;;4995081;28;20033;-44
2023/08/11 14:29:21;;;;;;;3.50;2.70;;;;;;;;;;5007508;28;20026;-47
2023/08/11 14:31:46;;;;;;;6.57;2.72;;;;;;;;;;4997278;28;20038;-49
2023/08/11 14:34:12;;;;;;;4.22;2.30;;;;;;;;;;5006684;28;20092;-51
2023/08/11 14:36:37;;;;;;;5.07;2.42;;;;;;;;;;5007977;28;20042;-45